sensor_id;sensor_type;location;lat;lon;timestamp;P1;durP1;ratioP1;P2;durP2;ratioP2
65759;SDS011;52496;51.082;5.066;2023-12-22T00:00:44;8.90;;;2.85;;
65759;SDS011;52496;51.082;5.066;2023-12-22T00:03:17;14.10;;;2.92;;
65759;SDS011;52496;51.082;5.066;2023-12-22T00:05:48;15.00;;;4.07;;
65759;SDS011;52496;51.082;5.066;2023-12-22T00:08:18;8.90;;;3.20;;
65759;SDS011;52496;51.082;5.066;2023-12-22T00:10:49;13.23;;;2.30;;
65759;SDS011;52496;51.082;5.066;2023-12-22T00:13:20;14.48;;;3.30;;
65759;SDS011;52496;51.082;5.066;2023-12-22T00:15:50;5.93;;;2.33;;
65759;SDS011;52496;51.082;5.066;2023-12-22T00:18:21;8.30;;;3.05;;
65759;SDS011;52496;51.082;5.066;2023-12-22T00:20:51;10.25;;;3.03;;
65759;SDS011;52496;51.082;5.066;2023-12-22T00:23:22;13.70;;;2.63;;
65759;SDS011;52496;51.082;5.066;2023-12-22T00:25:53;17.02;;;2.58;;
65759;SDS011;52496;51.082;5.066;2023-12-22T00:28:23;15.93;;;4.03;;
65759;SDS011;52496;51.082;5.066;2023-12-22T00:30:54;18.48;;;2.92;;
65759;SDS011;52496;51.082;5.066;2023-12-22T00:33:25;13.32;;;2.90;;
65759;SDS011;52496;51.082;5.066;2023-12-22T00:35:56;20.23;;;4.63;;
65759;SDS011;52496;51.082;5.066;2023-12-22T00:38:27;7.30;;;2.30;;
65759;SDS011;52496;51.082;5.066;2023-12-22T00:40:58;14.88;;;3.10;;
65759;SDS011;52496;51.082;5.066;2023-12-22T00:43:29;10.60;;;2.28;;
65759;SDS011;52496;51.082;5.066;2023-12-22T00:45:59;6.43;;;2.38;;
65759;SDS011;52496;51.082;5.066;2023-12-22T00:48:30;22.58;;;3.20;;
65759;SDS011;52496;51.082;5.066;2023-12-22T00:51:01;12.65;;;2.38;;
65759;SDS011;52496;51.082;5.066;2023-12-22T00:53:31;12.05;;;3.22;;
65759;SDS011;52496;51.082;5.066;2023-12-22T00:56:02;8.75;;;2.13;;
65759;SDS011;52496;51.082;5.066;2023-12-22T00:58:36;11.00;;;2.50;;
65759;SDS011;52496;51.082;5.066;2023-12-22T01:01:06;17.60;;;3.70;;
65759;SDS011;52496;51.082;5.066;2023-12-22T01:03:37;10.73;;;2.65;;
65759;SDS011;52496;51.082;5.066;2023-12-22T01:06:08;5.72;;;2.03;;
65759;SDS011;52496;51.082;5.066;2023-12-22T01:08:38;5.28;;;1.90;;
65759;SDS011;52496;51.082;5.066;2023-12-22T01:11:09;6.10;;;2.30;;
65759;SDS011;52496;51.082;5.066;2023-12-22T01:13:40;6.95;;;2.03;;
65759;SDS011;52496;51.082;5.066;2023-12-22T01:16:11;7.25;;;2.55;;
65759;SDS011;52496;51.082;5.066;2023-12-22T01:18:41;8.10;;;1.58;;
65759;SDS011;52496;51.082;5.066;2023-12-22T01:21:14;10.13;;;3.17;;
65759;SDS011;52496;51.082;5.066;2023-12-22T01:23:44;10.38;;;2.40;;
65759;SDS011;52496;51.082;5.066;2023-12-22T01:26:15;13.75;;;2.60;;
65759;SDS011;52496;51.082;5.066;2023-12-22T01:28:46;6.18;;;2.42;;
65759;SDS011;52496;51.082;5.066;2023-12-22T01:31:16;12.55;;;2.00;;
65759;SDS011;52496;51.082;5.066;2023-12-22T01:33:47;7.50;;;2.88;;
65759;SDS011;52496;51.082;5.066;2023-12-22T01:36:17;12.38;;;2.85;;
65759;SDS011;52496;51.082;5.066;2023-12-22T01:38:48;7.18;;;1.70;;
65759;SDS011;52496;51.082;5.066;2023-12-22T01:41:18;6.45;;;2.20;;
65759;SDS011;52496;51.082;5.066;2023-12-22T01:43:49;6.07;;;2.67;;
65759;SDS011;52496;51.082;5.066;2023-12-22T01:46:19;15.45;;;3.22;;
65759;SDS011;52496;51.082;5.066;2023-12-22T01:48:52;8.05;;;2.58;;
65759;SDS011;52496;51.082;5.066;2023-12-22T01:51:22;8.25;;;2.70;;
65759;SDS011;52496;51.082;5.066;2023-12-22T01:53:53;10.93;;;2.42;;
65759;SDS011;52496;51.082;5.066;2023-12-22T01:56:24;12.13;;;3.35;;
65759;SDS011;52496;51.082;5.066;2023-12-22T01:58:55;12.65;;;2.60;;
65759;SDS011;52496;51.082;5.066;2023-12-22T02:01:29;14.50;;;4.18;;
65759;SDS011;52496;51.082;5.066;2023-12-22T02:03:59;15.57;;;5.00;;
65759;SDS011;52496;51.082;5.066;2023-12-22T02:06:30;11.20;;;2.42;;
65759;SDS011;52496;51.082;5.066;2023-12-22T02:09:03;7.85;;;2.75;;
65759;SDS011;52496;51.082;5.066;2023-12-22T02:11:37;10.40;;;3.05;;
65759;SDS011;52496;51.082;5.066;2023-12-22T02:14:08;16.05;;;3.22;;
65759;SDS011;52496;51.082;5.066;2023-12-22T02:16:49;7.97;;;2.55;;
65759;SDS011;52496;51.082;5.066;2023-12-22T02:22:10;13.73;;;2.90;;
65759;SDS011;52496;51.082;5.066;2023-12-22T02:24:42;17.92;;;4.15;;
65759;SDS011;52496;51.082;5.066;2023-12-22T02:27:20;7.07;;;2.55;;
65759;SDS011;52496;51.082;5.066;2023-12-22T02:32:52;15.10;;;3.28;;
65759;SDS011;52496;51.082;5.066;2023-12-22T02:35:27;15.73;;;2.83;;
65759;SDS011;52496;51.082;5.066;2023-12-22T02:38:01;7.75;;;2.45;;
65759;SDS011;52496;51.082;5.066;2023-12-22T02:40:33;17.98;;;3.92;;
65759;SDS011;52496;51.082;5.066;2023-12-22T02:43:05;6.88;;;2.38;;
65759;SDS011;52496;51.082;5.066;2023-12-22T02:45:36;11.10;;;2.42;;
65759;SDS011;52496;51.082;5.066;2023-12-22T02:48:07;18.42;;;2.70;;
65759;SDS011;52496;51.082;5.066;2023-12-22T02:50:37;11.48;;;3.63;;
65759;SDS011;52496;51.082;5.066;2023-12-22T02:53:08;15.70;;;2.45;;
65759;SDS011;52496;51.082;5.066;2023-12-22T02:55:38;11.48;;;3.00;;
65759;SDS011;52496;51.082;5.066;2023-12-22T02:58:09;8.23;;;2.45;;
65759;SDS011;52496;51.082;5.066;2023-12-22T03:00:39;12.88;;;2.88;;
65759;SDS011;52496;51.082;5.066;2023-12-22T03:03:10;14.63;;;3.15;;
65759;SDS011;52496;51.082;5.066;2023-12-22T03:05:41;8.77;;;2.70;;
65759;SDS011;52496;51.082;5.066;2023-12-22T03:08:11;10.73;;;2.85;;
65759;SDS011;52496;51.082;5.066;2023-12-22T03:10:42;12.02;;;3.22;;
65759;SDS011;52496;51.082;5.066;2023-12-22T03:13:12;12.88;;;2.72;;
65759;SDS011;52496;51.082;5.066;2023-12-22T03:15:43;15.18;;;3.38;;
65759;SDS011;52496;51.082;5.066;2023-12-22T03:18:14;7.35;;;2.72;;
65759;SDS011;52496;51.082;5.066;2023-12-22T03:20:44;11.43;;;3.53;;
65759;SDS011;52496;51.082;5.066;2023-12-22T03:23:15;8.48;;;2.60;;
65759;SDS011;52496;51.082;5.066;2023-12-22T03:25:45;8.25;;;2.47;;
65759;SDS011;52496;51.082;5.066;2023-12-22T03:28:16;8.80;;;2.22;;
65759;SDS011;52496;51.082;5.066;2023-12-22T03:30:46;8.73;;;2.47;;
65759;SDS011;52496;51.082;5.066;2023-12-22T03:33:17;12.05;;;3.08;;
65759;SDS011;52496;51.082;5.066;2023-12-22T03:35:48;7.80;;;2.70;;
65759;SDS011;52496;51.082;5.066;2023-12-22T03:38:18;14.35;;;3.50;;
65759;SDS011;52496;51.082;5.066;2023-12-22T03:40:49;13.48;;;2.22;;
65759;SDS011;52496;51.082;5.066;2023-12-22T03:43:19;11.85;;;2.05;;
65759;SDS011;52496;51.082;5.066;2023-12-22T03:45:50;7.68;;;3.15;;
65759;SDS011;52496;51.082;5.066;2023-12-22T03:48:20;18.30;;;4.82;;
65759;SDS011;52496;51.082;5.066;2023-12-22T03:50:51;15.57;;;2.40;;
65759;SDS011;52496;51.082;5.066;2023-12-22T03:53:22;9.27;;;2.65;;
65759;SDS011;52496;51.082;5.066;2023-12-22T03:55:52;9.77;;;2.80;;
65759;SDS011;52496;51.082;5.066;2023-12-22T03:58:23;21.27;;;3.40;;
65759;SDS011;52496;51.082;5.066;2023-12-22T04:00:53;11.45;;;2.78;;
65759;SDS011;52496;51.082;5.066;2023-12-22T04:03:24;10.32;;;4.10;;
65759;SDS011;52496;51.082;5.066;2023-12-22T04:05:54;11.40;;;2.08;;
65759;SDS011;52496;51.082;5.066;2023-12-22T04:08:25;11.88;;;2.63;;
65759;SDS011;52496;51.082;5.066;2023-12-22T04:10:55;11.55;;;2.80;;
65759;SDS011;52496;51.082;5.066;2023-12-22T04:13:26;8.40;;;2.65;;
65759;SDS011;52496;51.082;5.066;2023-12-22T04:15:57;15.02;;;3.08;;
65759;SDS011;52496;51.082;5.066;2023-12-22T04:18:28;14.25;;;3.70;;
65759;SDS011;52496;51.082;5.066;2023-12-22T04:20:58;18.63;;;3.55;;
65759;SDS011;52496;51.082;5.066;2023-12-22T04:23:29;21.65;;;2.75;;
65759;SDS011;52496;51.082;5.066;2023-12-22T04:25:59;11.85;;;3.08;;
65759;SDS011;52496;51.082;5.066;2023-12-22T04:28:31;12.85;;;3.03;;
65759;SDS011;52496;51.082;5.066;2023-12-22T04:31:02;13.50;;;2.95;;
65759;SDS011;52496;51.082;5.066;2023-12-22T04:33:33;18.48;;;3.92;;
65759;SDS011;52496;51.082;5.066;2023-12-22T04:36:03;14.02;;;2.90;;
65759;SDS011;52496;51.082;5.066;2023-12-22T04:38:34;25.25;;;4.45;;
65759;SDS011;52496;51.082;5.066;2023-12-22T04:41:05;16.30;;;3.75;;
65759;SDS011;52496;51.082;5.066;2023-12-22T04:43:35;7.63;;;2.15;;
65759;SDS011;52496;51.082;5.066;2023-12-22T04:46:06;9.82;;;2.58;;
65759;SDS011;52496;51.082;5.066;2023-12-22T04:48:37;10.18;;;3.05;;
65759;SDS011;52496;51.082;5.066;2023-12-22T04:51:07;18.75;;;3.80;;
65759;SDS011;52496;51.082;5.066;2023-12-22T04:53:38;16.63;;;3.97;;
65759;SDS011;52496;51.082;5.066;2023-12-22T04:56:08;13.38;;;3.05;;
65759;SDS011;52496;51.082;5.066;2023-12-22T04:58:39;13.82;;;3.17;;
65759;SDS011;52496;51.082;5.066;2023-12-22T05:01:09;12.75;;;3.42;;
65759;SDS011;52496;51.082;5.066;2023-12-22T05:03:40;17.52;;;3.80;;
65759;SDS011;52496;51.082;5.066;2023-12-22T05:06:10;11.57;;;4.20;;
65759;SDS011;52496;51.082;5.066;2023-12-22T05:08:41;22.48;;;3.15;;
65759;SDS011;52496;51.082;5.066;2023-12-22T05:11:11;15.88;;;2.92;;
65759;SDS011;52496;51.082;5.066;2023-12-22T05:13:42;10.68;;;3.47;;
65759;SDS011;52496;51.082;5.066;2023-12-22T05:16:14;16.40;;;2.92;;
65759;SDS011;52496;51.082;5.066;2023-12-22T05:18:45;13.60;;;3.42;;
65759;SDS011;52496;51.082;5.066;2023-12-22T05:21:16;12.70;;;3.55;;
65759;SDS011;52496;51.082;5.066;2023-12-22T05:23:47;11.00;;;2.90;;
65759;SDS011;52496;51.082;5.066;2023-12-22T05:26:18;15.88;;;4.38;;
65759;SDS011;52496;51.082;5.066;2023-12-22T05:28:51;15.82;;;3.08;;
65759;SDS011;52496;51.082;5.066;2023-12-22T05:31:22;14.80;;;3.20;;
65759;SDS011;52496;51.082;5.066;2023-12-22T05:33:53;16.42;;;3.45;;
65759;SDS011;52496;51.082;5.066;2023-12-22T05:36:23;16.02;;;3.28;;
65759;SDS011;52496;51.082;5.066;2023-12-22T05:38:55;11.68;;;3.08;;
65759;SDS011;52496;51.082;5.066;2023-12-22T05:41:25;17.13;;;4.15;;
65759;SDS011;52496;51.082;5.066;2023-12-22T05:43:56;13.63;;;4.05;;
65759;SDS011;52496;51.082;5.066;2023-12-22T05:46:26;16.70;;;4.15;;
65759;SDS011;52496;51.082;5.066;2023-12-22T05:48:57;12.95;;;3.67;;
65759;SDS011;52496;51.082;5.066;2023-12-22T05:51:29;13.90;;;3.75;;
65759;SDS011;52496;51.082;5.066;2023-12-22T05:54:07;11.60;;;3.80;;
65759;SDS011;52496;51.082;5.066;2023-12-22T05:56:38;23.70;;;3.45;;
65759;SDS011;52496;51.082;5.066;2023-12-22T05:59:08;11.52;;;4.40;;
65759;SDS011;52496;51.082;5.066;2023-12-22T06:01:39;12.77;;;4.15;;
65759;SDS011;52496;51.082;5.066;2023-12-22T06:04:09;20.90;;;5.03;;
65759;SDS011;52496;51.082;5.066;2023-12-22T06:06:40;15.55;;;3.40;;
65759;SDS011;52496;51.082;5.066;2023-12-22T06:09:10;20.75;;;4.00;;
65759;SDS011;52496;51.082;5.066;2023-12-22T06:11:42;12.77;;;3.13;;
65759;SDS011;52496;51.082;5.066;2023-12-22T06:14:13;20.75;;;4.15;;
65759;SDS011;52496;51.082;5.066;2023-12-22T06:16:43;15.27;;;4.05;;
65759;SDS011;52496;51.082;5.066;2023-12-22T06:19:14;20.17;;;3.88;;
65759;SDS011;52496;51.082;5.066;2023-12-22T06:21:44;16.30;;;3.95;;
65759;SDS011;52496;51.082;5.066;2023-12-22T06:24:15;18.35;;;3.80;;
65759;SDS011;52496;51.082;5.066;2023-12-22T06:26:46;13.27;;;4.13;;
65759;SDS011;52496;51.082;5.066;2023-12-22T06:29:17;15.73;;;3.70;;
65759;SDS011;52496;51.082;5.066;2023-12-22T06:31:47;18.55;;;4.03;;
65759;SDS011;52496;51.082;5.066;2023-12-22T06:34:20;16.40;;;3.70;;
65759;SDS011;52496;51.082;5.066;2023-12-22T06:36:51;16.15;;;3.78;;
65759;SDS011;52496;51.082;5.066;2023-12-22T06:39:21;15.15;;;3.97;;
65759;SDS011;52496;51.082;5.066;2023-12-22T06:41:51;33.83;;;4.50;;
65759;SDS011;52496;51.082;5.066;2023-12-22T06:44:22;15.02;;;3.65;;
65759;SDS011;52496;51.082;5.066;2023-12-22T06:46:52;13.55;;;3.35;;
65759;SDS011;52496;51.082;5.066;2023-12-22T06:49:23;15.50;;;3.20;;
65759;SDS011;52496;51.082;5.066;2023-12-22T06:51:53;21.20;;;4.20;;
65759;SDS011;52496;51.082;5.066;2023-12-22T06:54:24;18.48;;;3.40;;
65759;SDS011;52496;51.082;5.066;2023-12-22T06:56:55;14.20;;;3.63;;
65759;SDS011;52496;51.082;5.066;2023-12-22T06:59:25;25.25;;;4.28;;
65759;SDS011;52496;51.082;5.066;2023-12-22T07:01:56;25.23;;;4.25;;
65759;SDS011;52496;51.082;5.066;2023-12-22T07:04:26;17.75;;;5.32;;
65759;SDS011;52496;51.082;5.066;2023-12-22T07:06:56;18.10;;;3.45;;
65759;SDS011;52496;51.082;5.066;2023-12-22T07:09:27;15.98;;;3.60;;
65759;SDS011;52496;51.082;5.066;2023-12-22T07:11:58;18.70;;;4.55;;
65759;SDS011;52496;51.082;5.066;2023-12-22T07:14:28;14.23;;;4.18;;
65759;SDS011;52496;51.082;5.066;2023-12-22T07:16:59;17.33;;;3.67;;
65759;SDS011;52496;51.082;5.066;2023-12-22T07:19:31;19.35;;;3.20;;
65759;SDS011;52496;51.082;5.066;2023-12-22T07:22:01;18.48;;;3.67;;
65759;SDS011;52496;51.082;5.066;2023-12-22T07:24:34;19.55;;;3.80;;
65759;SDS011;52496;51.082;5.066;2023-12-22T07:27:04;16.05;;;3.13;;
65759;SDS011;52496;51.082;5.066;2023-12-22T07:29:35;18.88;;;3.72;;
65759;SDS011;52496;51.082;5.066;2023-12-22T07:32:06;17.85;;;4.10;;
65759;SDS011;52496;51.082;5.066;2023-12-22T07:34:36;16.27;;;3.85;;
65759;SDS011;52496;51.082;5.066;2023-12-22T07:37:06;19.08;;;4.30;;
65759;SDS011;52496;51.082;5.066;2023-12-22T07:39:37;16.65;;;4.60;;
65759;SDS011;52496;51.082;5.066;2023-12-22T07:42:08;15.20;;;3.20;;
65759;SDS011;52496;51.082;5.066;2023-12-22T07:44:39;12.20;;;3.55;;
65759;SDS011;52496;51.082;5.066;2023-12-22T07:47:09;9.60;;;2.80;;
65759;SDS011;52496;51.082;5.066;2023-12-22T07:49:40;13.43;;;3.67;;
65759;SDS011;52496;51.082;5.066;2023-12-22T07:52:11;18.48;;;4.05;;
65759;SDS011;52496;51.082;5.066;2023-12-22T07:54:42;12.88;;;3.00;;
65759;SDS011;52496;51.082;5.066;2023-12-22T07:57:12;10.52;;;3.95;;
65759;SDS011;52496;51.082;5.066;2023-12-22T07:59:43;12.32;;;2.88;;
65759;SDS011;52496;51.082;5.066;2023-12-22T08:02:13;12.38;;;4.05;;
65759;SDS011;52496;51.082;5.066;2023-12-22T08:04:44;11.52;;;3.03;;
65759;SDS011;52496;51.082;5.066;2023-12-22T08:07:15;13.88;;;4.03;;
65759;SDS011;52496;51.082;5.066;2023-12-22T08:09:45;16.88;;;3.83;;
65759;SDS011;52496;51.082;5.066;2023-12-22T08:12:16;11.57;;;3.00;;
65759;SDS011;52496;51.082;5.066;2023-12-22T08:14:46;12.07;;;3.05;;
65759;SDS011;52496;51.082;5.066;2023-12-22T08:17:16;11.40;;;3.22;;
65759;SDS011;52496;51.082;5.066;2023-12-22T08:19:47;14.00;;;4.15;;
65759;SDS011;52496;51.082;5.066;2023-12-22T08:22:18;11.63;;;3.40;;
65759;SDS011;52496;51.082;5.066;2023-12-22T08:24:48;8.27;;;3.13;;
65759;SDS011;52496;51.082;5.066;2023-12-22T08:27:19;15.70;;;3.53;;
65759;SDS011;52496;51.082;5.066;2023-12-22T08:29:50;5.68;;;3.00;;
65759;SDS011;52496;51.082;5.066;2023-12-22T08:32:20;6.43;;;2.75;;
65759;SDS011;52496;51.082;5.066;2023-12-22T08:34:50;8.95;;;3.13;;
65759;SDS011;52496;51.082;5.066;2023-12-22T08:37:21;9.52;;;3.33;;
65759;SDS011;52496;51.082;5.066;2023-12-22T08:39:52;10.57;;;3.58;;
65759;SDS011;52496;51.082;5.066;2023-12-22T08:42:26;11.15;;;3.97;;
65759;SDS011;52496;51.082;5.066;2023-12-22T08:44:59;12.45;;;3.63;;
65759;SDS011;52496;51.082;5.066;2023-12-22T08:47:29;20.15;;;4.00;;
65759;SDS011;52496;51.082;5.066;2023-12-22T08:50:00;8.20;;;3.10;;
65759;SDS011;52496;51.082;5.066;2023-12-22T08:52:33;14.95;;;3.58;;
65759;SDS011;52496;51.082;5.066;2023-12-22T08:55:05;11.13;;;3.22;;
65759;SDS011;52496;51.082;5.066;2023-12-22T08:57:36;15.55;;;3.30;;
65759;SDS011;52496;51.082;5.066;2023-12-22T09:00:06;11.93;;;4.13;;
65759;SDS011;52496;51.082;5.066;2023-12-22T09:02:37;8.55;;;3.33;;
65759;SDS011;52496;51.082;5.066;2023-12-22T09:05:08;6.22;;;3.28;;
65759;SDS011;52496;51.082;5.066;2023-12-22T09:07:38;9.68;;;3.00;;
65759;SDS011;52496;51.082;5.066;2023-12-22T09:10:09;9.38;;;3.30;;
65759;SDS011;52496;51.082;5.066;2023-12-22T09:12:39;10.70;;;3.30;;
65759;SDS011;52496;51.082;5.066;2023-12-22T09:15:10;9.43;;;3.13;;
65759;SDS011;52496;51.082;5.066;2023-12-22T09:17:40;8.68;;;3.60;;
65759;SDS011;52496;51.082;5.066;2023-12-22T09:20:12;7.88;;;3.15;;
65759;SDS011;52496;51.082;5.066;2023-12-22T09:22:42;11.82;;;3.47;;
65759;SDS011;52496;51.082;5.066;2023-12-22T09:25:13;5.25;;;3.17;;
65759;SDS011;52496;51.082;5.066;2023-12-22T09:27:43;7.40;;;3.47;;
65759;SDS011;52496;51.082;5.066;2023-12-22T09:30:14;6.88;;;3.40;;
65759;SDS011;52496;51.082;5.066;2023-12-22T09:32:44;7.20;;;3.42;;
65759;SDS011;52496;51.082;5.066;2023-12-22T09:35:15;8.52;;;3.33;;
65759;SDS011;52496;51.082;5.066;2023-12-22T09:37:46;6.80;;;3.50;;
65759;SDS011;52496;51.082;5.066;2023-12-22T09:40:16;8.07;;;2.85;;
65759;SDS011;52496;51.082;5.066;2023-12-22T09:42:47;6.32;;;3.17;;
65759;SDS011;52496;51.082;5.066;2023-12-22T09:45:19;8.93;;;3.05;;
65759;SDS011;52496;51.082;5.066;2023-12-22T09:47:51;5.63;;;3.35;;
65759;SDS011;52496;51.082;5.066;2023-12-22T09:50:22;7.18;;;3.10;;
65759;SDS011;52496;51.082;5.066;2023-12-22T09:52:54;5.35;;;2.75;;
65759;SDS011;52496;51.082;5.066;2023-12-22T09:55:25;8.63;;;3.08;;
65759;SDS011;52496;51.082;5.066;2023-12-22T09:57:57;6.07;;;3.33;;
65759;SDS011;52496;51.082;5.066;2023-12-22T10:00:29;6.63;;;3.55;;
65759;SDS011;52496;51.082;5.066;2023-12-22T10:03:01;5.72;;;3.30;;
65759;SDS011;52496;51.082;5.066;2023-12-22T10:05:32;12.50;;;3.17;;
65759;SDS011;52496;51.082;5.066;2023-12-22T10:08:04;5.78;;;3.10;;
65759;SDS011;52496;51.082;5.066;2023-12-22T10:10:34;5.85;;;3.03;;
65759;SDS011;52496;51.082;5.066;2023-12-22T10:13:05;5.18;;;2.63;;
65759;SDS011;52496;51.082;5.066;2023-12-22T10:15:40;4.15;;;2.40;;
65759;SDS011;52496;51.082;5.066;2023-12-22T10:18:11;5.55;;;2.33;;
65759;SDS011;52496;51.082;5.066;2023-12-22T10:20:42;4.95;;;2.30;;
65759;SDS011;52496;51.082;5.066;2023-12-22T10:23:14;5.00;;;2.58;;
65759;SDS011;52496;51.082;5.066;2023-12-22T10:25:45;4.85;;;2.13;;
65759;SDS011;52496;51.082;5.066;2023-12-22T10:28:16;4.40;;;3.03;;
65759;SDS011;52496;51.082;5.066;2023-12-22T10:30:47;7.25;;;2.50;;
65759;SDS011;52496;51.082;5.066;2023-12-22T10:33:19;7.82;;;2.70;;
65759;SDS011;52496;51.082;5.066;2023-12-22T10:35:50;7.20;;;2.42;;
65759;SDS011;52496;51.082;5.066;2023-12-22T10:38:22;4.40;;;1.92;;
65759;SDS011;52496;51.082;5.066;2023-12-22T10:40:53;4.72;;;2.60;;
65759;SDS011;52496;51.082;5.066;2023-12-22T10:43:24;5.10;;;1.90;;
65759;SDS011;52496;51.082;5.066;2023-12-22T10:45:55;5.20;;;2.25;;
65759;SDS011;52496;51.082;5.066;2023-12-22T10:48:25;8.93;;;2.08;;
65759;SDS011;52496;51.082;5.066;2023-12-22T10:50:56;4.95;;;1.70;;
65759;SDS011;52496;51.082;5.066;2023-12-22T10:53:26;8.60;;;3.22;;
65759;SDS011;52496;51.082;5.066;2023-12-22T10:55:57;4.35;;;1.30;;
65759;SDS011;52496;51.082;5.066;2023-12-22T10:58:28;3.38;;;2.05;;
65759;SDS011;52496;51.082;5.066;2023-12-22T11:00:59;3.28;;;1.60;;
65759;SDS011;52496;51.082;5.066;2023-12-22T11:03:30;5.93;;;1.70;;
65759;SDS011;52496;51.082;5.066;2023-12-22T11:06:04;6.70;;;1.60;;
65759;SDS011;52496;51.082;5.066;2023-12-22T11:08:39;2.88;;;1.60;;
65759;SDS011;52496;51.082;5.066;2023-12-22T11:11:53;4.35;;;1.73;;
65759;SDS011;52496;51.082;5.066;2023-12-22T11:14:06;3.75;;;1.40;;
65759;SDS011;52496;51.082;5.066;2023-12-22T11:16:37;7.72;;;2.00;;
65759;SDS011;52496;51.082;5.066;2023-12-22T11:19:13;8.95;;;1.70;;
65759;SDS011;52496;51.082;5.066;2023-12-22T11:21:44;4.13;;;1.48;;
65759;SDS011;52496;51.082;5.066;2023-12-22T11:24:17;3.60;;;1.80;;
65759;SDS011;52496;51.082;5.066;2023-12-22T11:26:49;7.20;;;1.60;;
65759;SDS011;52496;51.082;5.066;2023-12-22T11:29:27;3.97;;;1.83;;
65759;SDS011;52496;51.082;5.066;2023-12-22T11:31:59;2.45;;;1.48;;
65759;SDS011;52496;51.082;5.066;2023-12-22T11:34:32;7.00;;;1.88;;
65759;SDS011;52496;51.082;5.066;2023-12-22T11:37:06;5.43;;;1.75;;
65759;SDS011;52496;51.082;5.066;2023-12-22T11:39:38;2.97;;;1.45;;
65759;SDS011;52496;51.082;5.066;2023-12-22T11:42:19;3.65;;;1.52;;
65759;SDS011;52496;51.082;5.066;2023-12-22T11:44:55;8.07;;;1.88;;
65759;SDS011;52496;51.082;5.066;2023-12-22T11:47:27;1.65;;;1.38;;
65759;SDS011;52496;51.082;5.066;2023-12-22T11:49:57;2.45;;;1.40;;
65759;SDS011;52496;51.082;5.066;2023-12-22T11:52:29;8.23;;;1.70;;
65759;SDS011;52496;51.082;5.066;2023-12-22T11:54:59;4.18;;;1.52;;
65759;SDS011;52496;51.082;5.066;2023-12-22T11:57:34;3.35;;;1.35;;
65759;SDS011;52496;51.082;5.066;2023-12-22T12:00:09;3.95;;;1.40;;
65759;SDS011;52496;51.082;5.066;2023-12-22T12:03:07;2.95;;;1.60;;
65759;SDS011;52496;51.082;5.066;2023-12-22T12:05:37;4.20;;;1.30;;
65759;SDS011;52496;51.082;5.066;2023-12-22T12:08:08;5.82;;;1.25;;
65759;SDS011;52496;51.082;5.066;2023-12-22T12:13:23;3.38;;;1.55;;
65759;SDS011;52496;51.082;5.066;2023-12-22T12:15:58;7.13;;;1.75;;
65759;SDS011;52496;51.082;5.066;2023-12-22T12:18:30;4.95;;;1.67;;
65759;SDS011;52496;51.082;5.066;2023-12-22T12:21:02;5.18;;;1.42;;
65759;SDS011;52496;51.082;5.066;2023-12-22T12:23:33;2.20;;;1.27;;
65759;SDS011;52496;51.082;5.066;2023-12-22T12:26:07;2.75;;;1.50;;
65759;SDS011;52496;51.082;5.066;2023-12-22T12:28:41;5.45;;;1.77;;
65759;SDS011;52496;51.082;5.066;2023-12-22T12:31:15;4.25;;;2.28;;
65759;SDS011;52496;51.082;5.066;2023-12-22T12:33:45;4.70;;;1.73;;
65759;SDS011;52496;51.082;5.066;2023-12-22T12:36:16;3.83;;;1.40;;
65759;SDS011;52496;51.082;5.066;2023-12-22T12:38:58;6.38;;;2.00;;
65759;SDS011;52496;51.082;5.066;2023-12-22T12:41:41;7.22;;;1.92;;
65759;SDS011;52496;51.082;5.066;2023-12-22T12:44:14;9.15;;;2.17;;
65759;SDS011;52496;51.082;5.066;2023-12-22T12:46:46;4.03;;;1.42;;
65759;SDS011;52496;51.082;5.066;2023-12-22T12:49:16;4.07;;;1.30;;
65759;SDS011;52496;51.082;5.066;2023-12-22T12:51:49;5.75;;;1.63;;
65759;SDS011;52496;51.082;5.066;2023-12-22T12:54:19;3.83;;;1.90;;
65759;SDS011;52496;51.082;5.066;2023-12-22T12:56:50;2.88;;;1.35;;
65759;SDS011;52496;51.082;5.066;2023-12-22T12:59:21;9.43;;;1.95;;
65759;SDS011;52496;51.082;5.066;2023-12-22T13:01:52;4.45;;;1.40;;
65759;SDS011;52496;51.082;5.066;2023-12-22T13:04:23;3.28;;;1.52;;
65759;SDS011;52496;51.082;5.066;2023-12-22T13:07:08;4.30;;;1.88;;
65759;SDS011;52496;51.082;5.066;2023-12-22T13:09:40;2.38;;;1.48;;
65759;SDS011;52496;51.082;5.066;2023-12-22T13:12:14;4.78;;;1.75;;
65759;SDS011;52496;51.082;5.066;2023-12-22T13:14:45;3.40;;;1.42;;
65759;SDS011;52496;51.082;5.066;2023-12-22T13:17:15;3.75;;;1.42;;
65759;SDS011;52496;51.082;5.066;2023-12-22T13:19:46;3.53;;;1.35;;
65759;SDS011;52496;51.082;5.066;2023-12-22T13:22:17;5.03;;;1.55;;
65759;SDS011;52496;51.082;5.066;2023-12-22T13:24:55;6.90;;;1.75;;
65759;SDS011;52496;51.082;5.066;2023-12-22T13:27:27;4.63;;;1.98;;
65759;SDS011;52496;51.082;5.066;2023-12-22T13:29:57;3.30;;;1.95;;
65759;SDS011;52496;51.082;5.066;2023-12-22T13:32:28;3.80;;;1.30;;
65759;SDS011;52496;51.082;5.066;2023-12-22T13:34:58;9.25;;;3.35;;
65759;SDS011;52496;51.082;5.066;2023-12-22T13:37:29;4.40;;;1.65;;
65759;SDS011;52496;51.082;5.066;2023-12-22T13:40:00;3.25;;;1.60;;
65759;SDS011;52496;51.082;5.066;2023-12-22T13:42:37;5.95;;;1.67;;
65759;SDS011;52496;51.082;5.066;2023-12-22T13:45:11;6.30;;;1.67;;
65759;SDS011;52496;51.082;5.066;2023-12-22T13:47:42;4.25;;;1.40;;
65759;SDS011;52496;51.082;5.066;2023-12-22T13:50:16;5.50;;;1.70;;
65759;SDS011;52496;51.082;5.066;2023-12-22T13:52:48;4.30;;;1.55;;
65759;SDS011;52496;51.082;5.066;2023-12-22T13:55:23;3.35;;;1.08;;
65759;SDS011;52496;51.082;5.066;2023-12-22T13:57:59;5.15;;;1.15;;
65759;SDS011;52496;51.082;5.066;2023-12-22T14:00:36;2.70;;;1.33;;
65759;SDS011;52496;51.082;5.066;2023-12-22T14:03:07;2.08;;;1.27;;
65759;SDS011;52496;51.082;5.066;2023-12-22T14:05:38;7.32;;;1.60;;
65759;SDS011;52496;51.082;5.066;2023-12-22T14:08:09;5.63;;;1.75;;
65759;SDS011;52496;51.082;5.066;2023-12-22T14:10:46;4.18;;;1.38;;
65759;SDS011;52496;51.082;5.066;2023-12-22T14:13:17;4.28;;;1.50;;
65759;SDS011;52496;51.082;5.066;2023-12-22T14:15:47;5.65;;;1.50;;
65759;SDS011;52496;51.082;5.066;2023-12-22T14:18:18;4.28;;;1.50;;
65759;SDS011;52496;51.082;5.066;2023-12-22T14:20:48;5.93;;;1.67;;
65759;SDS011;52496;51.082;5.066;2023-12-22T14:23:19;7.88;;;1.23;;
65759;SDS011;52496;51.082;5.066;2023-12-22T14:25:49;5.63;;;1.40;;
65759;SDS011;52496;51.082;5.066;2023-12-22T14:28:20;3.15;;;1.45;;
65759;SDS011;52496;51.082;5.066;2023-12-22T14:30:50;4.88;;;1.92;;
65759;SDS011;52496;51.082;5.066;2023-12-22T14:33:21;2.80;;;1.55;;
65759;SDS011;52496;51.082;5.066;2023-12-22T14:35:52;7.88;;;1.67;;
65759;SDS011;52496;51.082;5.066;2023-12-22T14:38:22;2.25;;;1.50;;
65759;SDS011;52496;51.082;5.066;2023-12-22T14:40:53;2.75;;;1.40;;
65759;SDS011;52496;51.082;5.066;2023-12-22T14:43:23;5.32;;;1.60;;
65759;SDS011;52496;51.082;5.066;2023-12-22T14:45:55;4.55;;;1.40;;
65759;SDS011;52496;51.082;5.066;2023-12-22T14:48:26;9.10;;;1.58;;
65759;SDS011;52496;51.082;5.066;2023-12-22T14:50:56;4.10;;;1.05;;
65759;SDS011;52496;51.082;5.066;2023-12-22T14:53:27;5.07;;;1.85;;
65759;SDS011;52496;51.082;5.066;2023-12-22T14:55:58;3.92;;;1.40;;
65759;SDS011;52496;51.082;5.066;2023-12-22T14:58:29;9.18;;;1.40;;
65759;SDS011;52496;51.082;5.066;2023-12-22T15:01:01;4.38;;;1.42;;
65759;SDS011;52496;51.082;5.066;2023-12-22T15:03:32;3.47;;;1.25;;
65759;SDS011;52496;51.082;5.066;2023-12-22T15:06:03;3.17;;;1.15;;
65759;SDS011;52496;51.082;5.066;2023-12-22T15:08:33;3.40;;;1.70;;
65759;SDS011;52496;51.082;5.066;2023-12-22T15:11:04;7.10;;;1.73;;
65759;SDS011;52496;51.082;5.066;2023-12-22T15:13:37;9.15;;;1.70;;